This is the latest recevied weather packets stored in our database for station/object VK3MAK-1. If no packets are shown the sender has not sent any weather packets the latest 10 day(s).
| Time | Temp. | Humidity | Pressure | Rain* | Wind** | Luminosity | Snow |
|---|---|---|---|---|---|---|---|
| 1777786804 | 18.89° C | 46% | 1008.8 hPa | 0 mm | 7.15 m/s, 338° | - | - |
| 1777786203 | 18.33° C | 47% | 1008.6 hPa | 0 mm | 6.71 m/s, 338° | - | - |
| 1777785603 | 18.89° C | 52% | 1008.7 hPa | 0 mm | 6.26 m/s, 338° | - | - |
| 1777785004 | 18.89° C | 52% | 1008.7 hPa | 0 mm | 6.26 m/s, 338° | - | - |
| 1777784404 | 18.33° C | 53% | 1008.7 hPa | 0 mm | 6.26 m/s, 338° | - | - |
| 1777783805 | 18.33° C | 53% | 1008.7 hPa | 0 mm | 6.26 m/s, 338° | - | - |
| 1777783204 | 18.33° C | 53% | 1008.7 hPa | 0 mm | 6.26 m/s, 338° | - | - |
| 1777782603 | 17.78° C | 56% | 1009 hPa | 0 mm | 4.92 m/s, 315° | - | - |
| 1777782003 | 17.78° C | 56% | 1009 hPa | 0 mm | 4.92 m/s, 315° | - | - |
| 1777781403 | 17.78° C | 56% | 1009 hPa | 0 mm | 4.92 m/s, 315° | - | - |
| 1777780803 | 17.78° C | 56% | 1009 hPa | 0 mm | 4.47 m/s, 338° | - | - |
| 1777780204 | 17.78° C | 56% | 1009 hPa | 0 mm | 4.47 m/s, 338° | - | - |
| 1777779604 | 17.78° C | 56% | 1009 hPa | 0 mm | 4.47 m/s, 338° | - | - |
| 1777779003 | 18.89° C | 58% | 1009.1 hPa | 0 mm | 6.26 m/s, 338° | - | - |
| 1777778403 | 18.89° C | 58% | 1009.1 hPa | 0 mm | 6.26 m/s, 338° | - | - |
| 1777777803 | 18.89° C | 58% | 1009.1 hPa | 0 mm | 6.26 m/s, 338° | - | - |
| 1777777204 | 17.78° C | 66% | 1009.7 hPa | 0 mm | 4.02 m/s, 338° | - | - |
| 1777776604 | 17.78° C | 66% | 1009.7 hPa | 0 mm | 4.02 m/s, 338° | - | - |
| 1777776003 | 17.78° C | 66% | 1009.7 hPa | 0 mm | 4.02 m/s, 338° | - | - |
| 1777775404 | 17.78° C | 67% | 1009.9 hPa | 0 mm | 5.36 m/s, 0° | - | - |
| 1777774803 | 17.78° C | 67% | 1009.9 hPa | 0 mm | 5.36 m/s, 0° | - | - |
| 1777774203 | 17.78° C | 67% | 1009.9 hPa | 0 mm | 5.36 m/s, 0° | - | - |
| 1777773604 | 16.67° C | 75% | 1010 hPa | 0 mm | 4.47 m/s, 0° | - | - |
| 1777773003 | 16.67° C | 75% | 1010 hPa | 0 mm | 4.47 m/s, 0° | - | - |
| 1777772403 | 16.67° C | 75% | 1010 hPa | 0 mm | 4.47 m/s, 0° | - | - |
* Rain latest hour (hover to see other rain measurements)
** Current wind speed in m/s (hover to see current wind gust speed)